createdAt,value
2023-09-01T00:04:18.670Z,14.71
2023-09-01T00:09:20.029Z,14.66
2023-09-01T00:14:21.382Z,14.59
2023-09-01T00:19:24.176Z,14.57
2023-09-01T00:24:25.785Z,14.53
2023-09-01T00:29:27.255Z,14.46
2023-09-01T00:34:31.056Z,14.41
2023-09-01T00:39:32.429Z,14.41
2023-09-01T00:44:33.775Z,14.38
2023-09-01T00:49:38.613Z,14.35
2023-09-01T00:54:39.984Z,14.38
2023-09-01T00:59:41.513Z,14.53
2023-09-01T01:04:42.891Z,14.58
2023-09-01T01:09:50.473Z,14.56
2023-09-01T01:14:54.253Z,14.65
2023-09-01T01:19:57.220Z,14.60
2023-09-01T01:24:58.663Z,14.54
2023-09-01T01:30:01.856Z,14.60
2023-09-01T01:35:05.372Z,14.55
2023-09-01T01:40:08.693Z,14.64
2023-09-01T01:45:12.435Z,14.58
2023-09-01T01:50:13.787Z,14.70
2023-09-01T01:55:15.179Z,14.64
2023-09-01T02:00:16.705Z,14.62
2023-09-01T02:05:18.343Z,14.63
2023-09-01T02:10:20.366Z,14.64
2023-09-01T02:15:21.742Z,14.67
2023-09-01T02:20:23.306Z,14.66
2023-09-01T02:25:24.679Z,14.71
2023-09-01T02:30:26.061Z,14.81
2023-09-01T02:35:27.529Z,14.73
2023-09-01T02:40:29.157Z,14.75
2023-09-01T02:45:30.598Z,14.77
2023-09-01T02:50:31.973Z,14.76
2023-09-01T02:55:33.380Z,14.81
2023-09-01T03:00:34.771Z,14.77
2023-09-01T03:05:37.055Z,14.81
2023-09-01T03:10:38.744Z,14.75
2023-09-01T03:15:41.263Z,14.75
2023-09-01T03:20:42.639Z,14.72
2023-09-01T03:25:44.032Z,14.66
2023-09-01T03:30:45.405Z,14.56
2023-09-01T03:35:46.822Z,14.53
2023-09-01T03:40:48.234Z,14.50
2023-09-01T03:45:49.632Z,14.53
2023-09-01T03:51:06.076Z,14.57
2023-09-01T03:56:08.818Z,14.58
2023-09-01T04:01:13.634Z,14.57
2023-09-01T04:06:15.807Z,14.58
2023-09-01T04:11:17.407Z,14.66
2023-09-01T04:16:18.798Z,14.51
2023-09-01T04:21:20.606Z,14.52
2023-09-01T04:26:22.134Z,14.58
2023-09-01T04:31:23.539Z,14.63
2023-09-01T04:36:33.350Z,14.67
2023-09-01T04:41:42.951Z,14.72
2023-09-01T04:46:44.348Z,14.68
2023-09-01T04:51:45.694Z,14.77
2023-09-01T04:56:47.269Z,14.72
2023-09-01T05:01:48.644Z,14.77
2023-09-01T05:06:50.026Z,14.91
2023-09-01T05:11:51.433Z,14.94
2023-09-01T05:16:52.917Z,15.05
2023-09-01T05:21:55.609Z,15.03
2023-09-01T05:26:56.984Z,15.19
2023-09-01T05:31:58.402Z,15.31
2023-09-01T05:36:59.775Z,15.26
2023-09-01T05:42:01.174Z,15.24
2023-09-01T05:47:04.837Z,15.39
2023-09-01T05:52:06.457Z,15.38
2023-09-01T05:57:07.915Z,15.41
2023-09-01T06:02:09.295Z,15.51
2023-09-01T06:07:10.928Z,15.53
2023-09-01T06:12:12.681Z,15.49
2023-09-01T06:17:14.070Z,15.61
2023-09-01T06:22:15.510Z,15.43
2023-09-01T06:27:16.954Z,15.40
2023-09-01T06:32:18.352Z,15.41
2023-09-01T06:37:19.707Z,15.19
2023-09-01T06:42:21.067Z,14.81
2023-09-01T06:47:22.842Z,14.69
2023-09-01T06:52:24.217Z,14.68
2023-09-01T06:57:25.578Z,14.67
2023-09-01T07:02:26.951Z,14.65
2023-09-01T07:07:28.312Z,14.62
2023-09-01T07:12:29.665Z,14.67
2023-09-01T07:17:31.193Z,14.69
2023-09-01T07:22:32.874Z,14.73
2023-09-01T07:27:34.231Z,14.81
2023-09-01T07:32:35.696Z,14.79
2023-09-01T07:37:37.106Z,15.02
2023-09-01T07:42:38.525Z,15.16
2023-09-01T07:47:40.029Z,15.47
2023-09-01T07:52:41.450Z,15.59
2023-09-01T07:57:43.191Z,15.54
2023-09-01T08:02:44.859Z,15.59
2023-09-01T08:07:47.751Z,15.53
2023-09-01T08:12:49.142Z,15.50
2023-09-01T08:17:51.369Z,15.63
2023-09-01T08:22:52.918Z,15.62
2023-09-01T08:27:54.281Z,15.65
2023-09-01T08:32:55.696Z,15.79
2023-09-01T08:37:57.089Z,15.97
2023-09-01T08:42:59.589Z,16.11
2023-09-01T08:48:04.733Z,16.36
2023-09-01T08:53:06.726Z,16.72
2023-09-01T08:58:08.180Z,17.12
2023-09-01T09:03:11.676Z,17.03
2023-09-01T09:08:13.744Z,17.15
2023-09-01T09:13:22.226Z,17.36
2023-09-01T09:18:30.591Z,17.41
2023-09-01T09:23:45.523Z,17.30
2023-09-01T09:28:49.808Z,17.21
2023-09-01T09:33:51.628Z,17.28
2023-09-01T09:38:53.404Z,17.09
2023-09-01T09:43:54.799Z,16.99
2023-09-01T09:48:57.545Z,17.23
2023-09-01T09:53:59.842Z,17.07
2023-09-01T09:59:04.723Z,17.21
2023-09-01T10:04:06.301Z,17.31
2023-09-01T10:09:09.370Z,17.68
2023-09-01T10:14:11.572Z,17.82
2023-09-01T10:19:13.540Z,17.99
2023-09-01T10:24:15.724Z,17.77
2023-09-01T10:29:29.903Z,17.73
2023-09-01T10:34:31.269Z,18.17
2023-09-01T10:39:32.794Z,18.04
2023-09-01T10:44:40.212Z,18.00
2023-09-01T10:49:57.224Z,18.04
2023-09-01T10:55:01.446Z,18.07
2023-09-01T11:00:22.853Z,18.21
2023-09-01T11:05:37.963Z,18.31
2023-09-01T11:10:39.410Z,18.15
2023-09-01T11:15:44.544Z,18.18
2023-09-01T11:20:47.072Z,18.34
2023-09-01T11:25:49.267Z,18.56
2023-09-01T11:30:57.567Z,18.47
2023-09-01T11:36:04.884Z,18.58
2023-09-01T11:41:07.465Z,18.74
2023-09-01T11:46:09.351Z,18.85
2023-09-01T11:51:10.993Z,18.84
2023-09-01T11:56:23.709Z,18.98
2023-09-01T12:01:28.249Z,18.86
2023-09-01T12:06:29.714Z,18.91
2023-09-01T12:11:31.115Z,19.27
2023-09-01T12:16:32.670Z,19.50
2023-09-01T12:21:34.107Z,19.68
2023-09-01T12:26:35.765Z,19.98
2023-09-01T12:31:37.524Z,19.96
2023-09-01T12:36:38.971Z,19.47
2023-09-01T12:41:40.370Z,19.38
2023-09-01T12:46:41.864Z,19.29
2023-09-01T12:51:43.324Z,19.55
2023-09-01T12:56:44.764Z,19.63
2023-09-01T13:01:46.170Z,19.65
2023-09-01T13:06:48.734Z,19.74
2023-09-01T13:11:50.173Z,20.01
2023-09-01T13:16:51.576Z,20.30
2023-09-01T13:21:53.006Z,20.34
2023-09-01T13:26:54.366Z,20.65
2023-09-01T13:31:55.764Z,20.98
2023-09-01T13:36:57.230Z,21.00
2023-09-01T13:41:58.665Z,21.03
2023-09-01T13:47:00.687Z,21.06
2023-09-01T13:52:02.105Z,21.31
2023-09-01T13:57:03.514Z,20.75
2023-09-01T14:02:05.222Z,20.09
2023-09-01T14:07:06.696Z,19.62
2023-09-01T14:12:08.265Z,20.56
2023-09-01T14:17:09.659Z,20.87
2023-09-01T14:22:11.181Z,20.62
2023-09-01T14:27:12.564Z,20.72
2023-09-01T14:32:14.155Z,21.17
2023-09-01T14:37:15.531Z,20.99
2023-09-01T14:42:16.888Z,20.72
2023-09-01T14:47:18.260Z,20.80
2023-09-01T14:52:19.620Z,21.14
2023-09-01T14:57:21.040Z,21.28
2023-09-01T15:02:22.426Z,21.11
2023-09-01T15:07:24.702Z,19.91
2023-09-01T15:12:27.328Z,19.11
2023-09-01T15:17:28.827Z,19.00
2023-09-01T15:22:30.231Z,19.21
2023-09-01T15:27:31.630Z,19.26
2023-09-01T15:32:33.076Z,19.18
2023-09-01T15:37:34.466Z,19.81
2023-09-01T15:42:35.835Z,19.97
2023-09-01T15:47:37.274Z,19.97
2023-09-01T15:52:38.713Z,20.13
2023-09-01T15:57:42.319Z,20.08
2023-09-01T16:02:43.740Z,20.00
2023-09-01T16:07:45.199Z,20.07
2023-09-01T16:12:46.903Z,19.87
2023-09-01T16:17:48.339Z,19.62
2023-09-01T16:22:49.774Z,19.58
2023-09-01T16:27:53.448Z,19.49
2023-09-01T16:32:54.957Z,19.31
2023-09-01T16:37:56.350Z,18.95
2023-09-01T16:42:58.148Z,18.90
2023-09-01T16:48:02.619Z,18.76
2023-09-01T16:53:04.244Z,18.70
2023-09-01T16:58:05.603Z,18.55
2023-09-01T17:03:07.075Z,18.63
2023-09-01T17:08:08.461Z,18.60
2023-09-01T17:13:10.330Z,18.52
2023-09-01T17:18:11.731Z,18.31
2023-09-01T17:23:13.472Z,18.08
2023-09-01T17:28:14.950Z,17.86
2023-09-01T17:33:16.650Z,17.70
2023-09-01T17:38:18.441Z,17.57
2023-09-01T17:43:20.116Z,17.44
2023-09-01T17:48:21.790Z,17.32
2023-09-01T17:53:23.156Z,17.31
2023-09-01T17:58:24.521Z,17.34
2023-09-01T18:03:25.972Z,17.39
2023-09-01T18:08:28.484Z,17.37
2023-09-01T18:13:29.859Z,17.16
2023-09-01T18:18:33.999Z,16.97
2023-09-01T18:23:35.738Z,16.82
2023-09-01T18:28:47.294Z,16.61
2023-09-01T18:33:49.859Z,16.42
2023-09-01T18:38:52.170Z,16.32
2023-09-01T18:43:56.307Z,16.13
2023-09-01T18:49:01.682Z,16.07
2023-09-01T18:54:09.296Z,15.89
2023-09-01T18:59:10.675Z,15.76
2023-09-01T19:04:12.258Z,15.64
2023-09-01T19:09:16.416Z,15.53
2023-09-01T19:14:20.837Z,15.47
2023-09-01T19:19:22.565Z,15.29
2023-09-01T19:24:24.830Z,15.16
2023-09-01T19:29:26.271Z,15.07
2023-09-01T19:34:27.826Z,14.99
2023-09-01T19:39:29.433Z,14.90
2023-09-01T19:44:33.737Z,14.80
2023-09-01T19:49:36.105Z,14.62
2023-09-01T19:54:37.788Z,14.60
2023-09-01T19:59:39.210Z,14.50
2023-09-01T20:04:40.623Z,14.38
2023-09-01T20:09:42.000Z,14.30
2023-09-01T20:14:44.184Z,14.24
2023-09-01T20:19:45.623Z,14.22
2023-09-01T20:24:47.014Z,14.16
2023-09-01T20:29:48.388Z,14.15
2023-09-01T20:34:49.742Z,14.11
2023-09-01T20:39:51.124Z,14.01
2023-09-01T20:44:52.859Z,13.89
2023-09-01T20:49:54.215Z,13.88
2023-09-01T20:54:55.581Z,13.90
2023-09-01T20:59:56.980Z,14.00
2023-09-01T21:04:58.342Z,14.08
2023-09-01T21:09:59.969Z,14.09
2023-09-01T21:15:01.835Z,14.12
2023-09-01T21:20:04.482Z,14.14
2023-09-01T21:25:05.999Z,14.15
2023-09-01T21:30:13.609Z,14.29
2023-09-01T21:35:15.296Z,14.23
2023-09-01T21:40:16.744Z,14.10
2023-09-01T21:45:18.256Z,14.08
2023-09-01T21:50:19.641Z,14.12
2023-09-01T21:55:21.709Z,14.09
2023-09-01T22:00:23.244Z,14.06
2023-09-01T22:05:24.650Z,13.93
2023-09-01T22:10:26.013Z,13.82
2023-09-01T22:15:27.366Z,13.79
2023-09-01T22:20:28.755Z,13.83
2023-09-01T22:25:30.185Z,13.83
2023-09-01T22:30:31.577Z,13.83
2023-09-01T22:35:32.966Z,13.82
2023-09-01T22:40:34.396Z,13.79
2023-09-01T22:45:35.787Z,13.73
2023-09-01T22:50:37.160Z,13.66
2023-09-01T22:55:38.573Z,13.58
2023-09-01T23:00:40.945Z,13.45
2023-09-01T23:05:42.665Z,13.36
2023-09-01T23:10:44.064Z,13.32
2023-09-01T23:15:45.569Z,13.27
2023-09-01T23:20:46.935Z,13.26
2023-09-01T23:25:48.350Z,13.28
2023-09-01T23:30:49.742Z,13.29
2023-09-01T23:35:51.502Z,13.28
2023-09-01T23:40:53.175Z,13.18
2023-09-01T23:45:55.218Z,13.17
2023-09-01T23:50:56.589Z,13.09
2023-09-01T23:55:57.999Z,13.02
